Terminal Aerodrome Forecast
Issued by NWS Tulsa, OK

Home | Current Version | Previous Version | Text Only | Print | Product List | Glossary On
Versions: 1 2 3 4 5 6 7 8 9 10 11 12 13 14 15 16 17 18
000
FTUS44 KTSA 282328
TAFTUL
TAF
KTUL 282328Z 2900/2924 11008KT P6SM VCSH BKN040
      TEMPO 2902/2906 6SM -TSRA OVC025CB
     FM290600 13012KT 6SM -TSRA BKN025CB
      TEMPO 2906/2910 VRB20G35KT 2SM TSRA BKN015CB
     FM291200 14012G18KT 6SM -SHRA BKN015
     FM291600 17015KT P6SM BKN025=

USA.gov is the U.S. government's official web portal to all federal, state and local government web resources and services.